Hlavní strana
METAR-TAF:

METAR-TAF

Letiště :

Sørkjosen, Norsko

zeměpisná šířka: 69-47N, zeměpisná délka: 020-58E, výška: 0 m

Aktuální stav počasí

Zpráva byla vytvořena před 3 hodinami a 27 minutami, v 07:50 UTC
vítr z různých směrů 3 kt
Teplota 9°C
Vlhkost vzduchu 71%
Tlak 1012 hPa
Viditelnost 10 km a více
Polojasno ve výšce 2600 ft
Oblačno až skoro zataženo ve výšce 5500 ft
slabé dešťové přeháňky

METAR: ENSR 040750Z VRB03KT 9999 -SHRA SCT026 BKN055 09/04 Q1012 RMK WIND 1119FT 11007KT

Čas: 13:17 (11:17 UTC)


TAF: chybějící

Stav a předpovědi počasí z více než 4 000 letišť (zprávy METAR a TAF).

Červené a žluté tečky na mapě představují dostupné meteorologické stanice.

Když kurzor umístíte na tečku, zobrazí se název stanice.

Pak kliknutím zobrazíte stav a předpověď počasí.

Chcete-li změnit mapu, kliknutím na zelené tlačítko se znaménkem +mapu přiblížíte, kliknutím na zelené tlačítko se znaménkem – mapu oddálíte a kliknutím na zelené šipky přejdete na sousední mapy.


METAR-TAF: